createdAt,value
2018-01-16T00:01:31.131Z,99470.60
2018-01-16T00:03:58.695Z,99454.07
2018-01-16T00:06:26.298Z,99442.91
2018-01-16T00:08:53.907Z,99440.36
2018-01-16T00:11:22.385Z,99436.20
2018-01-16T00:13:49.988Z,99420.73
2018-01-16T00:16:18.566Z,99424.02
2018-01-16T00:18:46.907Z,99416.47
2018-01-16T00:21:14.595Z,99410.59
2018-01-16T00:23:42.163Z,99407.43
2018-01-16T00:26:09.748Z,99400.63
2018-01-16T00:28:37.322Z,99407.81
2018-01-16T00:31:04.896Z,99403.24
2018-01-16T00:33:32.518Z,99395.72
2018-01-16T00:36:00.135Z,99394.70
2018-01-16T00:38:28.773Z,99375.80
2018-01-16T00:40:56.344Z,99366.92
2018-01-16T00:43:23.918Z,99365.84
2018-01-16T00:45:51.986Z,99350.53
2018-01-16T00:48:19.554Z,99342.94
2018-01-16T00:50:47.130Z,99338.66
2018-01-16T00:53:14.747Z,99330.20
2018-01-16T00:55:42.330Z,99320.36
2018-01-16T00:58:10.834Z,99316.70
2018-01-16T01:00:38.454Z,99311.20
2018-01-16T01:03:06.066Z,99312.12
2018-01-16T01:05:33.635Z,99301.80
2018-01-16T01:08:01.234Z,99311.30
2018-01-16T01:10:28.848Z,99301.70
2018-01-16T01:12:56.450Z,99297.53
2018-01-16T01:15:24.072Z,99292.34
2018-01-16T01:17:52.564Z,99295.95
2018-01-16T01:20:20.171Z,99283.84
2018-01-16T01:22:47.744Z,99272.91
2018-01-16T01:25:16.218Z,99274.44
2018-01-16T01:27:43.782Z,99260.46
2018-01-16T01:30:11.431Z,99265.09
2018-01-16T01:32:39.092Z,99262.10
2018-01-16T01:35:06.749Z,99244.21
2018-01-16T01:37:35.308Z,99235.51
2018-01-16T01:40:02.879Z,99235.16
2018-01-16T01:42:30.442Z,99221.16
2018-01-16T01:44:58.025Z,99220.43
2018-01-16T01:47:25.630Z,99208.28
2018-01-16T01:49:53.244Z,99206.37
2018-01-16T01:52:20.827Z,99193.14
2018-01-16T01:54:49.190Z,99185.23
2018-01-16T01:57:16.766Z,99187.40
2018-01-16T01:59:44.357Z,99178.77
2018-01-16T02:02:12.066Z,99175.64
2018-01-16T02:04:39.681Z,99169.80
2018-01-16T02:07:08.046Z,99153.84
2018-01-16T02:09:35.657Z,99151.11
2018-01-16T02:12:03.224Z,99147.45
2018-01-16T02:14:31.590Z,99135.66
2018-01-16T02:17:00.089Z,99120.20
2018-01-16T02:19:27.671Z,99116.23
2018-01-16T02:21:55.259Z,99112.28
2018-01-16T02:24:22.844Z,99100.97
2018-01-16T02:26:50.637Z,99084.48
2018-01-16T02:29:18.311Z,99089.34
2018-01-16T02:31:45.882Z,99081.62
2018-01-16T02:34:13.492Z,99070.63
2018-01-16T02:36:41.148Z,99061.65
2018-01-16T02:39:08.766Z,99065.72
2018-01-16T02:41:36.337Z,99053.88
2018-01-16T02:44:03.950Z,99039.68
2018-01-16T02:46:31.563Z,99040.27
2018-01-16T02:48:59.139Z,99040.61
2018-01-16T02:51:26.728Z,99026.14
2018-01-16T02:53:54.358Z,99023.36
2018-01-16T02:56:21.979Z,99020.02
2018-01-16T02:58:49.571Z,99012.16
2018-01-16T03:01:17.151Z,99014.35
2018-01-16T03:03:44.778Z,99006.96
2018-01-16T03:06:12.395Z,99013.38
2018-01-16T03:08:39.983Z,99005.98
2018-01-16T03:11:07.714Z,98995.14
2018-01-16T03:13:35.294Z,98997.53
2018-01-16T03:16:02.871Z,98981.65
2018-01-16T03:18:30.491Z,98983.77
2018-01-16T03:20:58.069Z,98976.95
2018-01-16T03:23:25.686Z,98972.94
2018-01-16T03:25:53.262Z,98967.61
2018-01-16T03:28:20.870Z,98959.88
2018-01-16T03:30:48.607Z,98967.73
2018-01-16T03:33:16.226Z,98962.99
2018-01-16T03:35:43.811Z,98933.80
2018-01-16T03:38:11.398Z,98960.95
2018-01-16T03:40:39.035Z,98951.67
2018-01-16T03:43:06.633Z,98931.27
2018-01-16T03:45:34.250Z,98941.27
2018-01-16T03:48:01.883Z,98951.87
2018-01-16T03:50:29.549Z,98944.56
2018-01-16T03:52:57.171Z,98943.53
2018-01-16T03:55:24.746Z,98934.17
2018-01-16T03:57:52.366Z,98924.10
2018-01-16T04:00:19.978Z,98927.96
2018-01-16T04:02:47.600Z,98913.91
2018-01-16T04:05:15.216Z,98925.34
2018-01-16T04:07:42.886Z,98923.34
2018-01-16T04:10:10.506Z,98921.03
2018-01-16T04:12:39.023Z,98915.19
2018-01-16T04:15:06.594Z,98915.77
2018-01-16T04:17:34.182Z,98914.78
2018-01-16T04:20:01.762Z,98920.80
2018-01-16T04:22:29.351Z,98915.38
2018-01-16T04:24:57.039Z,98912.47
2018-01-16T04:27:24.615Z,98879.53
2018-01-16T04:29:52.183Z,98893.84
2018-01-16T04:32:19.791Z,98894.63
2018-01-16T04:34:47.366Z,98883.99
2018-01-16T04:37:14.976Z,98875.28
2018-01-16T04:39:42.554Z,98868.95
2018-01-16T04:42:10.123Z,98865.24
2018-01-16T04:44:37.691Z,98859.87
2018-01-16T04:47:05.263Z,98854.83
2018-01-16T04:49:32.845Z,98846.12
2018-01-16T04:52:00.435Z,98847.63
2018-01-16T04:54:28.020Z,98856.91
2018-01-16T04:56:55.589Z,98841.34
2018-01-16T04:59:23.173Z,98845.55
2018-01-16T05:01:50.754Z,98843.31
2018-01-16T05:04:18.374Z,98851.99
2018-01-16T05:06:45.954Z,98843.50
2018-01-16T05:09:13.526Z,98839.81
2018-01-16T05:11:41.203Z,98829.81
2018-01-16T05:14:08.780Z,98827.13
2018-01-16T05:16:36.373Z,98819.08
2018-01-16T05:19:03.953Z,98825.88
2018-01-16T05:21:31.530Z,98828.45
2018-01-16T05:23:59.235Z,98829.02
2018-01-16T05:26:26.856Z,98827.83
2018-01-16T05:28:54.431Z,98837.95
2018-01-16T05:31:22.006Z,98834.02
2018-01-16T05:33:49.580Z,98840.00
2018-01-16T05:36:17.203Z,98844.08
2018-01-16T05:38:44.875Z,98832.03
2018-01-16T05:41:12.543Z,98833.20
2018-01-16T05:43:40.117Z,98838.77
2018-01-16T05:46:07.738Z,98827.52
2018-01-16T05:48:35.310Z,98824.31
2018-01-16T05:51:02.890Z,98827.58
2018-01-16T05:53:30.551Z,98836.17
2018-01-16T05:55:59.068Z,98827.73
2018-01-16T05:58:26.745Z,98825.45
2018-01-16T06:00:54.315Z,98827.00
2018-01-16T06:03:21.919Z,98835.59
2018-01-16T06:05:49.497Z,98828.40
2018-01-16T06:08:17.112Z,98823.30
2018-01-16T06:10:44.690Z,98824.16
2018-01-16T06:13:13.114Z,98827.03
2018-01-16T06:15:40.707Z,98830.19
2018-01-16T06:18:08.275Z,98825.75
2018-01-16T06:20:35.932Z,98822.44
2018-01-16T06:23:03.513Z,98820.02
2018-01-16T06:25:31.122Z,98806.80
2018-01-16T06:27:58.695Z,98835.27
2018-01-16T06:30:26.265Z,98825.48
2018-01-16T06:32:53.839Z,98828.48
2018-01-16T06:35:21.408Z,98830.52
2018-01-16T06:37:49.270Z,98832.30
2018-01-16T06:40:16.883Z,98819.70
2018-01-16T06:42:44.487Z,98823.02
2018-01-16T06:45:12.056Z,98807.18
2018-01-16T06:47:39.700Z,98815.02
2018-01-16T06:50:07.313Z,98816.69
2018-01-16T06:52:34.893Z,98807.39
2018-01-16T06:55:02.502Z,98805.94
2018-01-16T06:57:30.075Z,98819.70
2018-01-16T06:59:57.686Z,98814.98
2018-01-16T07:02:25.279Z,98818.67
2018-01-16T07:04:52.988Z,98798.18
2018-01-16T07:07:20.571Z,98813.56
2018-01-16T07:09:48.183Z,98809.28
2018-01-16T07:12:15.759Z,98807.97
2018-01-16T07:14:43.368Z,98812.20
2018-01-16T07:17:10.963Z,98810.50
2018-01-16T07:19:38.572Z,98809.86
2018-01-16T07:22:06.187Z,98808.77
2018-01-16T07:24:33.811Z,98802.20
2018-01-16T07:27:01.389Z,98806.88
2018-01-16T07:29:28.963Z,98798.97
2018-01-16T07:31:56.775Z,98801.14
2018-01-16T07:34:24.372Z,98800.35
2018-01-16T07:36:51.984Z,98804.84
2018-01-16T07:39:19.556Z,98801.73
2018-01-16T07:41:47.169Z,98806.22
2018-01-16T07:44:14.744Z,98797.69
2018-01-16T07:46:42.310Z,98795.11
2018-01-16T07:49:09.880Z,98791.47
2018-01-16T07:51:37.445Z,98798.32
2018-01-16T07:54:05.027Z,98798.27
2018-01-16T07:56:32.605Z,98789.69
2018-01-16T07:59:00.179Z,98789.08
2018-01-16T08:01:27.750Z,98783.84
2018-01-16T08:03:55.331Z,98786.56
2018-01-16T08:06:22.906Z,98784.08
2018-01-16T08:08:50.475Z,98786.49
2018-01-16T08:11:18.083Z,98778.84
2018-01-16T08:13:45.654Z,98778.31
2018-01-16T08:16:13.227Z,98769.69
2018-01-16T08:18:40.807Z,98765.40
2018-01-16T08:21:08.379Z,98773.14
2018-01-16T08:23:35.950Z,98772.60
2018-01-16T08:26:03.518Z,98769.02
2018-01-16T08:28:31.130Z,98776.68
2018-01-16T08:30:58.715Z,98765.36
2018-01-16T08:33:26.319Z,98775.59
2018-01-16T08:35:53.926Z,98780.64
2018-01-16T08:38:21.508Z,98772.93
2018-01-16T08:40:49.091Z,98772.55
2018-01-16T08:43:16.667Z,98769.92
2018-01-16T08:45:44.242Z,98765.45
2018-01-16T08:48:11.816Z,98765.44
2018-01-16T08:50:39.400Z,98754.59
2018-01-16T08:53:06.962Z,98755.16
2018-01-16T08:55:34.526Z,98750.72
2018-01-16T08:58:02.145Z,98753.74
2018-01-16T09:00:29.737Z,98764.14
2018-01-16T09:02:57.350Z,98760.00
2018-01-16T09:05:24.914Z,98769.80
2018-01-16T09:07:52.484Z,98761.38
2018-01-16T09:10:20.096Z,98764.42
2018-01-16T09:12:47.670Z,98768.91
2018-01-16T09:15:15.303Z,98761.56
2018-01-16T09:17:42.875Z,98756.05
2018-01-16T09:20:10.443Z,98751.94
2018-01-16T09:22:38.015Z,98748.40
2018-01-16T09:25:05.582Z,98732.27
2018-01-16T09:27:33.193Z,98744.47
2018-01-16T09:30:00.820Z,98746.41
2018-01-16T09:32:29.103Z,98738.00
2018-01-16T09:34:56.676Z,98732.78
2018-01-16T09:37:24.256Z,98726.39
2018-01-16T09:39:51.827Z,98726.55
2018-01-16T09:42:19.439Z,98728.27
2018-01-16T09:44:47.011Z,98729.24
2018-01-16T09:47:14.607Z,98723.38
2018-01-16T09:49:42.224Z,98712.56
2018-01-16T09:52:09.807Z,98713.95
2018-01-16T09:54:37.421Z,98711.88
2018-01-16T09:57:05.027Z,98713.30
2018-01-16T09:59:32.631Z,98705.86
2018-01-16T10:02:00.214Z,98707.29
2018-01-16T10:04:27.823Z,98703.81
2018-01-16T10:06:55.411Z,98695.63
2018-01-16T10:09:22.983Z,98697.00
2018-01-16T10:11:50.551Z,98686.95
2018-01-16T10:14:18.155Z,98695.29
2018-01-16T10:16:45.728Z,98690.41
2018-01-16T10:19:13.336Z,98690.03
2018-01-16T10:21:40.910Z,98695.53
2018-01-16T10:24:08.524Z,98695.23
2018-01-16T10:26:36.095Z,98692.12
2018-01-16T10:29:03.668Z,98685.52
2018-01-16T10:31:31.267Z,98683.81
2018-01-16T10:33:58.836Z,98687.37
2018-01-16T10:36:26.395Z,98680.67
2018-01-16T10:38:53.967Z,98676.60
2018-01-16T10:41:21.603Z,98674.89
2018-01-16T10:43:49.178Z,98673.02
2018-01-16T10:46:16.750Z,98670.78
2018-01-16T10:48:44.318Z,98662.89
2018-01-16T10:51:11.926Z,98664.88
2018-01-16T10:53:39.531Z,98662.73
2018-01-16T10:56:07.103Z,98661.77
2018-01-16T10:58:34.706Z,98655.30
2018-01-16T11:01:02.342Z,98651.91
2018-01-16T11:03:29.942Z,98649.53
2018-01-16T11:05:57.507Z,98640.04
2018-01-16T11:08:25.114Z,98635.39
2018-01-16T11:10:52.720Z,98631.81
2018-01-16T11:13:20.323Z,98633.91
2018-01-16T11:15:48.006Z,98628.12
2018-01-16T11:18:15.574Z,98627.23
2018-01-16T11:20:43.139Z,98622.22
2018-01-16T11:23:10.715Z,98629.27
2018-01-16T11:25:38.328Z,98622.20
2018-01-16T11:28:05.899Z,98622.42
2018-01-16T11:30:33.472Z,98616.98
2018-01-16T11:33:01.048Z,98610.81
2018-01-16T11:35:28.614Z,98610.44
2018-01-16T11:37:56.192Z,98612.30
2018-01-16T11:40:23.776Z,98609.80
2018-01-16T11:42:51.346Z,98602.61
2018-01-16T11:45:18.911Z,98594.50
2018-01-16T11:47:46.507Z,98593.86
2018-01-16T11:50:14.078Z,98594.33
2018-01-16T11:52:41.646Z,98587.33
2018-01-16T11:55:09.259Z,98573.94
2018-01-16T11:57:36.831Z,98575.14
2018-01-16T12:00:04.407Z,98571.58
2018-01-16T12:02:31.975Z,98572.59
2018-01-16T12:04:59.575Z,98568.48
2018-01-16T12:07:28.051Z,98558.73
2018-01-16T12:09:55.622Z,98557.56
2018-01-16T12:12:23.191Z,98556.80
2018-01-16T12:14:50.762Z,98564.28
2018-01-16T12:17:18.363Z,98559.81
2018-01-16T12:19:45.927Z,98543.99
2018-01-16T12:22:13.494Z,98541.23
2018-01-16T12:24:41.060Z,98542.44
2018-01-16T12:27:08.622Z,98535.09
2018-01-16T12:29:36.228Z,98538.27
2018-01-16T12:32:03.830Z,98532.19
2018-01-16T12:34:31.394Z,98524.31
2018-01-16T12:36:59.001Z,98514.63
2018-01-16T12:39:26.576Z,98511.16
2018-01-16T12:41:54.143Z,98516.57
2018-01-16T12:44:21.703Z,98521.44
2018-01-16T12:46:49.267Z,98514.19
2018-01-16T12:49:16.868Z,98515.22
2018-01-16T12:51:44.439Z,98514.79
2018-01-16T12:54:12.007Z,98511.67
2018-01-16T12:56:39.571Z,98509.08
2018-01-16T12:59:07.190Z,98514.55
2018-01-16T13:01:34.764Z,98507.07
2018-01-16T13:04:02.326Z,98506.53
2018-01-16T13:06:29.900Z,98505.97
2018-01-16T13:08:57.655Z,98501.02
2018-01-16T13:11:26.047Z,98499.56
2018-01-16T13:13:53.649Z,98497.48
2018-01-16T13:16:21.215Z,98495.17
2018-01-16T13:18:48.832Z,98495.33
2018-01-16T13:21:16.400Z,98495.47
2018-01-16T13:23:43.967Z,98500.51
2018-01-16T13:26:11.536Z,98498.34
2018-01-16T13:28:39.107Z,98498.35
2018-01-16T13:31:06.666Z,98500.67
2018-01-16T13:33:34.267Z,98495.81
2018-01-16T13:36:01.838Z,98491.03
2018-01-16T13:38:29.439Z,98489.47
2018-01-16T13:40:57.060Z,98487.77
2018-01-16T13:43:24.670Z,98488.43
2018-01-16T13:45:52.282Z,98482.64
2018-01-16T13:48:19.850Z,98483.59
2018-01-16T13:50:47.562Z,98485.56
2018-01-16T13:53:15.168Z,98485.25
2018-01-16T13:55:42.734Z,98488.78
2018-01-16T13:58:11.232Z,98491.73
2018-01-16T14:00:38.795Z,98493.30
2018-01-16T14:03:06.392Z,98488.41
2018-01-16T14:05:33.995Z,98489.55
2018-01-16T14:08:01.603Z,98483.48
2018-01-16T14:10:29.174Z,98481.24
2018-01-16T14:12:56.779Z,98487.31
2018-01-16T14:15:24.347Z,98485.87
2018-01-16T14:17:51.943Z,98493.33
2018-01-16T14:20:19.507Z,98484.03
2018-01-16T14:22:47.075Z,98480.77
2018-01-16T14:25:14.779Z,98484.71
2018-01-16T14:27:42.347Z,98476.05
2018-01-16T14:30:09.955Z,98477.47
2018-01-16T14:32:37.536Z,98476.28
2018-01-16T14:35:05.099Z,98475.80
2018-01-16T14:37:32.689Z,98471.75
2018-01-16T14:40:00.256Z,98466.27
2018-01-16T14:42:27.831Z,98468.05
2018-01-16T14:44:55.396Z,98460.30
2018-01-16T14:47:22.963Z,98452.33
2018-01-16T14:52:43.144Z,98452.24
2018-01-16T14:55:10.714Z,98456.17
2018-01-16T14:57:38.333Z,98456.38
2018-01-16T15:00:05.895Z,98459.16
2018-01-16T15:02:33.464Z,98453.59
2018-01-16T15:05:01.034Z,98460.36
2018-01-16T15:07:28.615Z,98458.97
2018-01-16T15:09:56.186Z,98462.86
2018-01-16T15:12:23.750Z,98469.32
2018-01-16T15:14:51.319Z,98473.95
2018-01-16T15:17:18.923Z,98471.20
2018-01-16T15:19:46.493Z,98473.09
2018-01-16T15:22:15.052Z,98471.72
2018-01-16T15:24:42.615Z,98470.76
2018-01-16T15:27:10.187Z,98466.02
2018-01-16T15:29:37.932Z,98466.80
2018-01-16T15:32:05.498Z,98467.57
2018-01-16T15:34:33.065Z,98467.02
2018-01-16T15:37:00.644Z,98472.83
2018-01-16T15:39:29.333Z,98472.20
2018-01-16T15:41:56.894Z,98481.22
2018-01-16T15:44:24.455Z,98479.05
2018-01-16T15:46:52.023Z,98475.61
2018-01-16T15:49:19.591Z,98478.58
2018-01-16T15:51:47.163Z,98479.08
2018-01-16T15:54:14.738Z,98478.36
2018-01-16T15:56:42.340Z,98479.30
2018-01-16T15:59:09.907Z,98486.51
2018-01-16T16:01:37.484Z,98485.52
2018-01-16T16:04:05.056Z,98494.19
2018-01-16T16:06:32.634Z,98490.00
2018-01-16T16:09:00.200Z,98491.52
2018-01-16T16:11:27.766Z,98497.69
2018-01-16T16:13:55.375Z,98494.08
2018-01-16T16:16:22.948Z,98496.77
2018-01-16T16:18:50.525Z,98500.19
2018-01-16T16:21:18.092Z,98496.25
2018-01-16T16:23:45.654Z,98496.14
2018-01-16T16:26:13.218Z,98501.53
2018-01-16T16:28:40.782Z,98498.11
2018-01-16T16:31:08.346Z,98503.77
2018-01-16T16:33:35.913Z,98508.14
2018-01-16T16:36:03.515Z,98514.69
2018-01-16T16:38:31.126Z,98514.97
2018-01-16T16:40:59.599Z,98514.17
2018-01-16T16:43:27.220Z,98525.41
2018-01-16T16:45:54.786Z,98523.58
2018-01-16T16:48:22.356Z,98519.16
2018-01-16T16:50:49.923Z,98523.47
2018-01-16T16:53:17.495Z,98527.73
2018-01-16T16:55:46.008Z,98546.79
2018-01-16T16:58:13.574Z,98531.56
2018-01-16T17:00:41.139Z,98534.34
2018-01-16T17:03:08.707Z,98534.38
2018-01-16T17:05:36.278Z,98538.13
2018-01-16T17:08:03.894Z,98537.89
2018-01-16T17:10:31.531Z,98536.00
2018-01-16T17:12:59.112Z,98551.47
2018-01-16T17:15:26.684Z,98549.30
2018-01-16T17:17:54.286Z,98566.84
2018-01-16T17:20:21.862Z,98570.85
2018-01-16T17:22:50.386Z,98580.63
2018-01-16T17:25:17.949Z,98585.20
2018-01-16T17:27:45.650Z,98589.44
2018-01-16T17:30:13.214Z,98579.80
2018-01-16T17:32:40.831Z,98585.59
2018-01-16T17:35:08.421Z,98585.20
2018-01-16T17:37:35.994Z,98585.78
2018-01-16T17:40:03.564Z,98586.28
2018-01-16T17:42:31.135Z,98588.27
2018-01-16T17:44:58.711Z,98598.86
2018-01-16T17:47:26.279Z,98605.53
2018-01-16T17:49:53.850Z,98596.72
2018-01-16T17:52:21.424Z,98615.14
2018-01-16T17:54:49.017Z,98601.81
2018-01-16T17:57:16.600Z,98619.33
2018-01-16T17:59:44.211Z,98621.34
2018-01-16T18:02:11.783Z,98613.57
2018-01-16T18:04:39.396Z,98617.57
2018-01-16T18:07:06.986Z,98610.16
2018-01-16T18:09:36.159Z,98621.84
2018-01-16T18:12:03.743Z,98620.01
2018-01-16T18:14:31.311Z,98625.35
2018-01-16T18:16:58.915Z,98628.22
2018-01-16T18:19:26.547Z,98630.19
2018-01-16T18:21:54.162Z,98627.48
2018-01-16T18:24:21.735Z,98636.23
2018-01-16T18:26:49.363Z,98641.91
2018-01-16T18:29:16.946Z,98634.55
2018-01-16T18:31:44.711Z,98642.17
2018-01-16T18:34:12.278Z,98640.22
2018-01-16T18:36:39.852Z,98640.19
2018-01-16T18:39:07.520Z,98643.83
2018-01-16T18:41:35.086Z,98649.63
2018-01-16T18:44:02.660Z,98649.82
2018-01-16T18:46:30.226Z,98647.93
2018-01-16T18:48:57.807Z,98649.45
2018-01-16T18:51:25.407Z,98646.63
2018-01-16T18:53:53.044Z,98655.22
2018-01-16T18:56:20.731Z,98657.73
2018-01-16T18:58:48.373Z,98648.83
2018-01-16T19:01:15.955Z,98656.49
2018-01-16T19:03:43.531Z,98660.55
2018-01-16T19:06:11.163Z,98655.73
2018-01-16T19:08:38.779Z,98664.41
2018-01-16T19:11:06.392Z,98648.62
2018-01-16T19:13:34.027Z,98657.18
2018-01-16T19:16:01.659Z,98660.19
2018-01-16T19:18:29.231Z,98656.95
2018-01-16T19:20:56.802Z,98643.50
2018-01-16T19:23:24.375Z,98646.68
2018-01-16T19:25:51.954Z,98643.48
2018-01-16T19:28:19.535Z,98647.89
2018-01-16T19:30:47.110Z,98643.67
2018-01-16T19:33:14.688Z,98656.44
2018-01-16T19:35:42.263Z,98650.97
2018-01-16T19:38:09.890Z,98650.50
2018-01-16T19:40:37.471Z,98652.33
2018-01-16T19:43:05.094Z,98647.13
2018-01-16T19:45:32.666Z,98651.94
2018-01-16T19:48:01.095Z,98654.79
2018-01-16T19:50:28.757Z,98653.47
2018-01-16T19:52:56.332Z,98661.16
2018-01-16T19:55:23.906Z,98667.41
2018-01-16T19:57:51.490Z,98675.94
2018-01-16T20:00:19.087Z,98677.77
2018-01-16T20:02:46.680Z,98676.28
2018-01-16T20:05:14.273Z,98671.12
2018-01-16T20:07:41.875Z,98673.88
2018-01-16T20:10:09.455Z,98669.20
2018-01-16T20:12:37.104Z,98671.75
2018-01-16T20:15:04.736Z,98680.95
2018-01-16T20:17:32.339Z,98683.06
2018-01-16T20:20:00.014Z,98681.06
2018-01-16T20:22:27.586Z,98688.23
2018-01-16T20:24:58.294Z,98687.70
2018-01-16T20:27:25.938Z,98691.11
2018-01-16T20:29:53.516Z,98695.12
2018-01-16T20:32:21.096Z,98697.09
2018-01-16T20:34:48.716Z,98691.34
2018-01-16T20:37:16.307Z,98694.02
2018-01-16T20:39:43.923Z,98696.04
2018-01-16T20:42:11.511Z,98693.00
2018-01-16T20:44:39.180Z,98695.70
2018-01-16T20:47:06.769Z,98697.17
2018-01-16T20:49:34.427Z,98695.27
2018-01-16T20:52:02.007Z,98692.95
2018-01-16T20:54:29.578Z,98700.00
2018-01-16T20:56:57.167Z,98692.23
2018-01-16T20:59:24.745Z,98702.12
2018-01-16T21:01:52.364Z,98698.13
2018-01-16T21:04:19.974Z,98702.09
2018-01-16T21:06:47.608Z,98713.34
2018-01-16T21:09:15.183Z,98709.17
2018-01-16T21:11:42.766Z,98712.94
2018-01-16T21:14:11.092Z,98714.56
2018-01-16T21:16:38.682Z,98723.08
2018-01-16T21:19:06.259Z,98728.33
2018-01-16T21:21:33.839Z,98722.66
2018-01-16T21:24:01.417Z,98723.53
2018-01-16T21:26:29.049Z,98722.13
2018-01-16T21:28:56.616Z,98714.88
2018-01-16T21:31:24.183Z,98726.45
2018-01-16T21:33:51.761Z,98719.91
2018-01-16T21:36:19.344Z,98721.52
2018-01-16T21:38:46.960Z,98729.31
2018-01-16T21:41:14.543Z,98728.56
2018-01-16T21:43:42.123Z,98725.27
2018-01-16T21:46:09.704Z,98717.11
2018-01-16T21:48:37.292Z,98712.92
2018-01-16T21:51:04.905Z,98712.32
2018-01-16T21:53:32.515Z,98709.12
2018-01-16T21:56:00.130Z,98712.83
2018-01-16T21:58:27.754Z,98715.58
2018-01-16T22:00:55.374Z,98716.99
2018-01-16T22:03:22.958Z,98712.95
2018-01-16T22:05:50.541Z,98715.07
2018-01-16T22:08:18.106Z,98713.78
2018-01-16T22:10:45.689Z,98719.62
2018-01-16T22:13:13.272Z,98724.41
2018-01-16T22:15:40.846Z,98725.91
2018-01-16T22:18:08.428Z,98728.66
2018-01-16T22:20:35.992Z,98719.80
2018-01-16T22:23:03.568Z,98722.55
2018-01-16T22:25:31.148Z,98722.63
2018-01-16T22:27:58.726Z,98720.13
2018-01-16T22:30:26.332Z,98726.45
2018-01-16T22:32:53.902Z,98727.42
2018-01-16T22:35:21.554Z,98741.06
2018-01-16T22:37:49.139Z,98734.56
2018-01-16T22:40:16.757Z,98738.57
2018-01-16T22:42:44.334Z,98733.41
2018-01-16T22:45:11.911Z,98731.70
2018-01-16T22:47:39.543Z,98734.15
2018-01-16T22:50:07.118Z,98733.61
2018-01-16T22:52:34.727Z,98744.97
2018-01-16T22:55:02.346Z,98741.89
2018-01-16T22:57:29.936Z,98744.05
2018-01-16T22:59:57.507Z,98748.39
2018-01-16T23:02:25.135Z,98757.75
2018-01-16T23:04:52.758Z,98746.09
2018-01-16T23:07:20.334Z,98747.22
2018-01-16T23:09:47.951Z,98749.38
2018-01-16T23:12:15.531Z,98743.85
2018-01-16T23:14:43.112Z,98743.64
2018-01-16T23:17:10.688Z,98742.11
2018-01-16T23:19:38.260Z,98744.34
2018-01-16T23:22:05.871Z,98741.80
2018-01-16T23:24:33.458Z,98742.97
2018-01-16T23:27:01.079Z,98748.97
2018-01-16T23:29:28.668Z,98744.26
2018-01-16T23:31:56.279Z,98742.26
2018-01-16T23:34:23.963Z,98743.55
2018-01-16T23:36:51.535Z,98741.43
2018-01-16T23:39:19.187Z,98749.76
2018-01-16T23:41:46.760Z,98756.80
2018-01-16T23:44:14.339Z,98753.92
2018-01-16T23:46:41.958Z,98758.34
2018-01-16T23:49:09.544Z,98744.98
2018-01-16T23:51:37.126Z,98752.88
2018-01-16T23:54:04.704Z,98761.17
2018-01-16T23:56:32.286Z,98759.36
2018-01-16T23:58:59.897Z,98758.48
